Andrews, NC

3:33 PM EST on December 06, 2016 (GMT -0500)
Andrews | | Change Station

Elev 1696 ft 35.20 °N, 83.86 °W | Updated 8 minutes ago

Heavy Drizzle
Heavy Drizzle
53 °F
Feels Like 53 °F
N
0
Wind Variable Wind from North

Today
High -- | Low -- °F
--% Chance of Precip.
Yesterday
High -- | Low -- °F
Precip. -- in
Pressure 29.76 in
Visibility 2.0 miles
Clouds Overcast 900 ft
Dew Point 53 °F
Humidity 100%
Rainfall 0.43 in
Snow Depth Not available.
7:30 AM 5:22 PM
Waxing Crescent, 45% visible
METAR KRHP 062025Z AUTO 00000KT 2SM +DZ OVC009 12/12 A2976 RMK AO2 P0001 T01150115
Pressure 29.76 in
Visibility 2.0 miles
Clouds Overcast 900 ft
Dew Point 53 °F
Humidity 100%
Rainfall 0.43 in
Snow Depth Not available.
7:30 AM 5:22 PM
Waxing Crescent, 45% visible
METAR KRHP 062025Z AUTO 00000KT 2SM +DZ OVC009 12/12 A2976 RMK AO2 P0001 T01150115

10-Day Weather Forecast

Almanac

Astronomy

Dec. 06, 2016 Rise Set
Actual Time
Civil Twilight
Nautical Twilight
Astronomical Twilight
Moon
Length of Visible Light
Length of Day
Tomorrow will be .
, % of the Moon is Illuminated

Today's Extremes

State Highs State Lows

Community

WunderPhotos

Upload Photos

1,956,024 photos uploaded!

WunderBlog® & News

Nearby

Air Quality

  Air Quality AQ Index Pollutant
Not available.

Snow Depth

Station Depth Elevation

Earthquake Activity

City Distance Mag. Time & Date
Minimum magnitude displayed is 2.5.

Coastal Water Temperatures

Place Temperature

Stations

Nearby Weather Stations

Station Location Temp. Windchill Dew Point Humidity Wind Precip. Elev Updated Type
                   

Watches & Warnings

There are currently no watches in effect.